Time;durP1;ratioP1;P1;durP2;ratioP2;P2;SDS_P1;SDS_P2;PMS_P1;PMS_P2;Temp;Humidity;BMP_temperature;BMP_pressure;BME280_temperature;BME280_humidity;BME280_pressure;Samples;Min_cycle;Max_cycle;Signal;HPM_P1;HPM_P2
2021/05/04 00:01:23;;;;;;;8.75;4.40;;;;;;;10.76;95.15;99913.78;3579198;40;20065;-62
2021/05/04 00:03:50;;;;;;;6.05;4.30;;;;;;;10.72;93.94;99923.19;3580672;40;20048;-62
2021/05/04 00:06:16;;;;;;;6.97;4.25;;;;;;;10.61;99.05;99890.16;3571132;40;20051;-64
2021/05/04 00:08:42;;;;;;;5.20;3.95;;;;;;;10.68;96.24;99906.53;3572224;40;20040;-64
2021/05/04 00:11:08;;;;;;;6.63;4.53;;;;;;;10.54;100.00;99894.53;3572750;40;20043;-62
2021/05/04 00:13:34;;;;;;;10.55;5.15;;;;;;;10.41;100.00;99900.31;3571388;40;20049;-63
2021/05/04 00:16:00;;;;;;;9.30;5.05;;;;;;;10.29;100.00;99891.66;3571641;40;20048;-62
2021/05/04 00:18:26;;;;;;;9.18;5.10;;;;;;;10.17;100.00;99877.63;3568988;40;20059;-64
2021/05/04 00:20:53;;;;;;;9.15;5.50;;;;;;;10.05;100.00;99896.84;3572092;40;20088;-62
2021/05/04 00:23:18;;;;;;;10.18;5.22;;;;;;;10.02;100.00;99878.34;3569610;40;20308;-63
2021/05/04 00:25:44;;;;;;;10.02;5.32;;;;;;;9.96;100.00;99858.31;3572890;40;20052;-63
2021/05/04 00:28:10;;;;;;;8.25;5.53;;;;;;;9.80;100.00;99856.31;3570072;40;20037;-62
2021/05/04 00:30:37;;;;;;;11.85;5.78;;;;;;;9.74;100.00;99854.28;3570365;40;20382;-62
2021/05/04 00:33:03;;;;;;;11.48;5.60;;;;;;;9.64;100.00;99854.34;3570768;40;20071;-63
2021/05/04 00:35:29;;;;;;;10.80;5.95;;;;;;;9.52;100.00;99855.59;3569534;40;20142;-62
2021/05/04 00:37:56;;;;;;;10.25;6.90;;;;;;;9.41;100.00;99852.13;3571951;40;20056;-61
2021/05/04 00:40:22;;;;;;;11.48;6.03;;;;;;;9.25;100.00;99843.94;3570473;40;20072;-63
2021/05/04 00:42:48;;;;;;;8.48;5.78;;;;;;;9.19;100.00;99841.88;3571938;40;21013;-61
2021/05/04 00:45:15;;;;;;;11.38;6.05;;;;;;;9.07;100.00;99834.00;3573767;40;20112;-63
2021/05/04 00:47:41;;;;;;;10.05;6.40;;;;;;;8.98;100.00;99836.75;3573349;40;20064;-61
2021/05/04 00:50:08;;;;;;;11.65;6.57;;;;;;;8.91;100.00;99832.00;3572033;40;20047;-63
2021/05/04 00:52:35;;;;;;;10.98;6.68;;;;;;;8.88;100.00;99815.38;3574123;40;20053;-62
2021/05/04 00:55:04;;;;;;;9.07;7.18;;;;;;;8.77;100.00;99824.44;3571292;40;20134;-64
2021/05/04 00:57:31;;;;;;;16.17;7.25;;;;;;;8.69;100.00;99800.22;3569295;40;20710;-63
2021/05/04 00:59:59;;;;;;;9.82;5.93;;;;;;;8.65;100.00;99804.19;3572608;40;20048;-62
2021/05/04 01:02:25;;;;;;;11.63;7.00;;;;;;;8.61;100.00;99803.63;3570029;40;20044;-62
2021/05/04 01:04:51;;;;;;;10.25;6.10;;;;;;;8.60;100.00;99799.28;3571905;40;20061;-61
2021/05/04 01:07:17;;;;;;;9.98;7.00;;;;;;;8.50;100.00;99790.44;3570721;40;20095;-63
2021/05/04 01:09:45;;;;;;;9.85;6.88;;;;;;;8.46;100.00;99789.88;3574175;40;20049;-63
2021/05/04 01:12:12;;;;;;;18.98;7.63;;;;;;;8.43;100.00;99784.78;3571296;40;20044;-61
2021/05/04 01:14:38;;;;;;;8.57;6.68;;;;;;;8.44;100.00;99780.28;3571933;40;20056;-61
2021/05/04 01:17:04;;;;;;;13.77;6.70;;;;;;;8.41;100.00;99781.44;3571475;40;20048;-62
2021/05/04 01:19:30;;;;;;;10.15;6.88;;;;;;;8.31;100.00;99762.69;3572242;40;20055;-62
2021/05/04 01:21:57;;;;;;;9.80;6.88;;;;;;;8.33;100.00;99752.69;3570282;40;20048;-61
2021/05/04 01:24:23;;;;;;;8.10;6.70;;;;;;;8.30;100.00;99758.31;3569847;40;20048;-63
2021/05/04 01:26:49;;;;;;;10.30;6.70;;;;;;;8.29;100.00;99751.28;3570153;40;20064;-62
2021/05/04 01:29:16;;;;;;;7.57;6.50;;;;;;;8.21;100.00;99738.59;3570529;40;20401;-62
2021/05/04 01:31:43;;;;;;;10.05;6.75;;;;;;;8.19;100.00;99739.75;3569943;40;20412;-65
2021/05/04 01:34:11;;;;;;;9.52;6.90;;;;;;;8.18;100.00;99732.72;3571405;40;20646;-66
2021/05/04 01:36:37;;;;;;;8.18;6.18;;;;;;;8.06;100.00;99740.09;3570449;40;20062;-64
2021/05/04 01:39:06;;;;;;;11.68;7.18;;;;;;;7.98;100.00;99719.41;3571146;40;20083;-64
2021/05/04 01:41:32;;;;;;;8.50;6.63;;;;;;;7.92;100.00;99728.03;3570466;40;20416;-66
2021/05/04 01:43:58;;;;;;;12.43;7.80;;;;;;;7.81;100.00;99712.13;3571710;40;20426;-62
2021/05/04 01:46:25;;;;;;;10.13;8.05;;;;;;;7.75;100.00;99702.00;3571017;40;20048;-62
2021/05/04 01:48:51;;;;;;;8.18;7.22;;;;;;;7.67;100.00;99698.22;3570161;40;20395;-62
2021/05/04 01:51:17;;;;;;;9.75;7.50;;;;;;;7.70;100.00;99679.19;3569655;40;20056;-64
2021/05/04 01:53:43;;;;;;;8.85;7.57;;;;;;;7.66;100.00;99677.78;3570285;40;20115;-62
2021/05/04 01:56:10;;;;;;;9.50;7.00;;;;;;;7.68;100.00;99683.81;3569814;40;20057;-61
2021/05/04 01:58:36;;;;;;;10.60;6.60;;;;;;;7.65;100.00;99683.28;3571730;40;20046;-65
2021/05/04 02:01:02;;;;;;;9.13;7.68;;;;;;;7.58;100.00;99661.59;3570283;40;20060;-62
2021/05/04 02:03:28;;;;;;;9.18;7.63;;;;;;;7.59;100.00;99644.53;3570931;40;20048;-61
2021/05/04 02:05:54;;;;;;;8.93;7.82;;;;;;;7.57;100.00;99626.94;3570364;40;20177;-65
2021/05/04 02:08:20;;;;;;;9.02;7.30;;;;;;;7.58;100.00;99628.63;3570671;40;20053;-63
2021/05/04 02:10:45;;;;;;;8.30;6.95;;;;;;;7.61;100.00;99629.19;3570875;40;20393;-62
2021/05/04 02:13:12;;;;;;;8.85;6.75;;;;;;;7.60;100.00;99624.81;3570614;40;20419;-61
2021/05/04 02:15:38;;;;;;;11.73;7.45;;;;;;;7.58;100.00;99612.56;3571175;40;20141;-63
2021/05/04 02:18:05;;;;;;;9.60;6.80;;;;;;;7.58;100.00;99618.75;3570629;40;20391;-61
2021/05/04 02:20:31;;;;;;;11.73;7.13;;;;;;;7.53;100.00;99607.66;3570986;40;20055;-62
2021/05/04 02:22:57;;;;;;;10.55;7.10;;;;;;;7.49;100.00;99598.22;3571279;40;20318;-62
2021/05/04 02:25:23;;;;;;;9.65;7.57;;;;;;;7.45;100.00;99576.28;3569549;40;20249;-63
2021/05/04 02:27:49;;;;;;;16.55;7.82;;;;;;;7.40;100.00;99558.97;3570023;40;20084;-62
2021/05/04 02:30:16;;;;;;;8.63;7.75;;;;;;;7.34;100.00;99574.59;3568813;40;20215;-64
2021/05/04 02:32:42;;;;;;;10.40;6.80;;;;;;;7.37;100.00;99574.31;3569287;40;20049;-62
2021/05/04 02:35:10;;;;;;;10.15;7.35;;;;;;;7.31;100.00;99540.09;3570218;40;20150;-64
2021/05/04 02:37:36;;;;;;;10.55;7.15;;;;;;;7.32;100.00;99540.97;3570168;40;20422;-61
2021/05/04 02:40:04;;;;;;;8.55;7.32;;;;;;;7.32;100.00;99543.66;3569785;40;20048;-63
2021/05/04 02:42:30;;;;;;;9.90;7.45;;;;;;;7.30;100.00;99538.44;3569600;40;20043;-62
2021/05/04 02:44:56;;;;;;;10.65;7.05;;;;;;;7.28;100.00;99512.81;3569878;40;20060;-65
2021/05/04 02:47:23;;;;;;;7.93;7.13;;;;;;;7.29;100.00;99509.97;3569716;40;20068;-63
2021/05/04 02:49:49;;;;;;;9.40;6.57;;;;;;;7.31;100.00;99491.94;3570031;40;20053;-64
2021/05/04 02:52:14;;;;;;;10.68;6.85;;;;;;;7.31;100.00;99504.47;3570555;40;20040;-61
2021/05/04 02:54:40;;;;;;;9.90;6.55;;;;;;;7.29;100.00;99504.63;3570217;40;20052;-62
2021/05/04 02:57:06;;;;;;;8.25;6.20;;;;;;;7.34;100.00;99491.63;3569170;40;20099;-63
2021/05/04 02:59:32;;;;;;;9.00;5.70;;;;;;;7.36;100.00;99481.63;3570064;40;20164;-61
2021/05/04 03:02:01;;;;;;;11.63;7.68;;;;;;;7.35;100.00;99489.81;3570436;40;20045;-62
2021/05/04 03:04:27;;;;;;;9.30;7.45;;;;;;;7.36;100.00;99480.78;3571127;40;20092;-62
2021/05/04 03:06:53;;;;;;;9.48;6.50;;;;;;;7.34;100.00;99467.53;3568735;40;20090;-62
2021/05/04 03:09:19;;;;;;;10.77;7.30;;;;;;;7.30;100.00;99466.19;3569063;40;20658;-66
2021/05/04 03:11:45;;;;;;;10.10;7.50;;;;;;;7.31;100.00;99445.59;3569531;40;20107;-64
2021/05/04 03:14:11;;;;;;;9.73;7.70;;;;;;;7.29;100.00;99447.59;3570124;40;20096;-61
2021/05/04 03:19:30;;;;;;;16.95;10.95;;;;;;;7.31;100.00;99448.28;3587267;23;20046;-62
2021/05/04 03:21:56;;;;;;;15.77;11.13;;;;;;;7.27;100.00;99442.38;3542857;40;20084;-62
2021/05/04 03:27:20;;;;;;;17.83;11.65;;;;;;;7.33;100.00;99423.06;3488847;23;20056;-62
2021/05/04 03:29:46;;;;;;;17.48;11.82;;;;;;;7.36;100.00;99428.09;3572803;40;20091;-62
2021/05/04 03:32:12;;;;;;;14.90;10.40;;;;;;;7.36;100.00;99413.84;3569014;40;20134;-62
2021/05/04 03:34:38;;;;;;;11.52;9.43;;;;;;;7.35;100.00;99407.66;3570302;40;20048;-62
2021/05/04 03:37:04;;;;;;;11.85;8.65;;;;;;;7.44;100.00;99391.72;3569031;40;20060;-62
2021/05/04 03:39:30;;;;;;;13.05;9.15;;;;;;;7.48;100.00;99377.00;3569506;40;20048;-62
2021/05/04 03:41:56;;;;;;;13.68;9.15;;;;;;;7.43;100.00;99385.50;3570432;40;20037;-63
2021/05/04 03:44:22;;;;;;;11.43;8.57;;;;;;;7.42;100.00;99375.81;3567008;40;20412;-62
2021/05/04 03:46:49;;;;;;;10.52;8.88;;;;;;;7.42;100.00;99361.56;3565673;40;20071;-61
2021/05/04 03:49:15;;;;;;;11.48;8.18;;;;;;;7.50;100.00;99369.69;3564946;40;20056;-63
2021/05/04 03:51:42;;;;;;;8.73;6.97;;;;;;;7.54;100.00;99363.84;3570204;40;20036;-62
2021/05/04 03:54:08;;;;;;;10.10;7.95;;;;;;;7.46;100.00;99358.41;3571541;40;20045;-66
2021/05/04 03:56:34;;;;;;;8.68;7.78;;;;;;;7.47;100.00;99359.28;3570898;40;20048;-62
2021/05/04 03:59:00;;;;;;;7.95;7.15;;;;;;;7.52;100.00;99373.03;3570021;40;20071;-62
2021/05/04 04:01:26;;;;;;;9.40;6.90;;;;;;;7.47;100.00;99353.91;3565561;40;20400;-64
2021/05/04 04:03:52;;;;;;;8.18;6.85;;;;;;;7.56;100.00;99349.50;3570179;40;21097;-62
2021/05/04 04:06:18;;;;;;;9.45;6.90;;;;;;;7.56;100.00;99326.22;3569867;40;20057;-61
2021/05/04 04:08:46;;;;;;;7.50;6.38;;;;;;;7.62;100.00;99317.56;3562321;40;20086;-63
2021/05/04 04:11:13;;;;;;;8.73;6.13;;;;;;;7.69;100.00;99323.97;3567365;40;20051;-61
2021/05/04 04:13:39;;;;;;;9.23;6.40;;;;;;;7.65;100.00;99313.75;3564992;40;20359;-65
2021/05/04 04:16:05;;;;;;;6.07;5.47;;;;;;;7.72;100.00;99320.16;3569043;40;20065;-65
2021/05/04 04:18:31;;;;;;;10.45;5.50;;;;;;;7.76;100.00;99326.03;3573660;40;20362;-61
2021/05/04 04:20:57;;;;;;;7.40;6.10;;;;;;;7.76;100.00;99328.72;3572749;40;20122;-64
2021/05/04 04:23:23;;;;;;;7.05;5.15;;;;;;;7.84;100.00;99326.94;3570942;40;20402;-65
2021/05/04 04:25:50;;;;;;;8.98;5.40;;;;;;;7.90;100.00;99328.16;3570493;40;20033;-64
2021/05/04 04:28:16;;;;;;;9.27;6.38;;;;;;;7.88;100.00;99328.31;3560294;40;20802;-62
2021/05/04 04:30:42;;;;;;;7.20;5.55;;;;;;;7.92;100.00;99326.19;3561408;40;20076;-61
2021/05/04 04:33:08;;;;;;;8.18;6.10;;;;;;;7.87;100.00;99318.59;3554322;40;20054;-64
2021/05/04 04:35:34;;;;;;;6.47;5.57;;;;;;;7.91;100.00;99319.13;3560268;40;20487;-63
2021/05/04 04:38:00;;;;;;;10.93;5.78;;;;;;;7.91;100.00;99319.13;3558082;40;20064;-63
2021/05/04 04:40:26;;;;;;;7.00;5.75;;;;;;;7.92;100.00;99315.47;3559871;40;20426;-64
2021/05/04 04:42:53;;;;;;;7.75;5.50;;;;;;;7.90;100.00;99306.72;3560124;40;20061;-62
2021/05/04 04:45:19;;;;;;;7.70;5.10;;;;;;;7.88;100.00;99303.38;3557837;40;21344;-62
2021/05/04 04:47:45;;;;;;;6.13;4.82;;;;;;;7.91;100.00;99324.47;3559324;40;20064;-66
2021/05/04 04:52:55;;;;;;;8.18;5.90;;;;;;;7.97;100.00;99294.38;3589069;22;20062;-63
2021/05/04 04:55:21;;;;;;;8.50;5.22;;;;;;;7.98;100.00;99296.06;3570768;40;20041;-63
2021/05/04 04:57:47;;;;;;;9.43;5.90;;;;;;;7.96;100.00;99294.53;3571990;40;20049;-62
2021/05/04 05:00:14;;;;;;;8.07;5.78;;;;;;;7.89;100.00;99300.53;3572097;40;20436;-61
2021/05/04 05:02:40;;;;;;;7.95;6.13;;;;;;;7.88;100.00;99287.31;3571531;40;20041;-62
2021/05/04 05:05:07;;;;;;;6.20;5.47;;;;;;;7.87;100.00;99290.97;3572047;40;20051;-64
2021/05/04 05:07:33;;;;;;;7.95;6.22;;;;;;;7.87;100.00;99288.28;3572764;40;20142;-61
2021/05/04 05:09:59;;;;;;;6.43;5.80;;;;;;;7.90;100.00;99296.00;3572657;40;20041;-62
2021/05/04 05:12:26;;;;;;;6.50;5.20;;;;;;;7.95;100.00;99282.13;3569461;40;20081;-62
2021/05/04 05:14:53;;;;;;;6.03;5.43;;;;;;;7.88;100.00;99284.63;3572203;40;20319;-64
2021/05/04 05:17:20;;;;;;;8.90;6.43;;;;;;;7.87;100.00;99285.59;3571277;40;20085;-64
2021/05/04 05:19:46;;;;;;;9.52;6.05;;;;;;;7.88;100.00;99288.13;3572775;40;20057;-62
2021/05/04 05:22:12;;;;;;;7.85;5.30;;;;;;;7.92;100.00;99271.75;3572492;40;20081;-62
2021/05/04 05:24:39;;;;;;;8.07;5.13;;;;;;;7.98;100.00;99273.78;3572888;40;20068;-62
2021/05/04 05:27:05;;;;;;;10.02;5.13;;;;;;;8.00;100.00;99279.84;3571668;40;20107;-61
2021/05/04 05:29:34;;;;;;;8.05;4.75;;;;;;;8.07;100.00;99271.00;3572641;40;20082;-61
2021/05/04 05:32:00;;;;;;;9.02;5.40;;;;;;;8.15;100.00;99277.41;3572613;40;20317;-62
2021/05/04 05:34:27;;;;;;;7.82;4.72;;;;;;;8.19;100.00;99273.41;3571828;40;20052;-62
2021/05/04 05:36:52;;;;;;;7.53;4.82;;;;;;;8.26;100.00;99266.41;3568008;40;20037;-61
2021/05/04 05:39:19;;;;;;;11.23;4.95;;;;;;;8.33;100.00;99270.13;3571916;40;20352;-60
2021/05/04 05:41:45;;;;;;;10.73;4.50;;;;;;;8.42;100.00;99263.78;3572162;40;20460;-63
2021/05/04 05:44:13;;;;;;;14.13;4.30;;;;;;;8.46;100.00;99252.78;3572249;40;20053;-64
2021/05/04 05:46:39;;;;;;;13.68;4.13;;;;;;;8.48;100.00;99248.94;3572134;40;20057;-61
2021/05/04 05:49:05;;;;;;;9.48;4.85;;;;;;;8.54;100.00;99250.13;3571764;40;20052;-64
2021/05/04 05:51:32;;;;;;;12.90;4.57;;;;;;;8.61;100.00;99248.47;3571770;40;20061;-61
2021/05/04 05:53:58;;;;;;;12.60;4.13;;;;;;;8.77;100.00;99255.72;3572268;40;20036;-61
2021/05/04 05:56:25;;;;;;;10.55;3.72;;;;;;;8.90;100.00;99252.56;3571528;40;20053;-62
2021/05/04 05:58:51;;;;;;;8.68;3.70;;;;;;;8.93;100.00;99244.19;3571935;40;20038;-63
2021/05/04 06:01:17;;;;;;;8.65;3.15;;;;;;;8.99;100.00;99240.81;3572521;40;20041;-64
2021/05/04 06:03:43;;;;;;;11.75;3.28;;;;;;;9.20;100.00;99243.06;3572167;40;20056;-62
2021/05/04 06:06:09;;;;;;;9.82;3.47;;;;;;;9.28;100.00;99228.78;3571689;40;20053;-62
2021/05/04 06:08:36;;;;;;;7.85;2.90;;;;;;;9.16;100.00;99246.22;3572379;40;20147;-64
2021/05/04 06:11:02;;;;;;;10.88;3.30;;;;;;;9.19;100.00;99237.84;3571393;40;20056;-62
2021/05/04 06:13:28;;;;;;;9.73;2.63;;;;;;;9.32;100.00;99234.63;3572263;40;20398;-61
2021/05/04 06:15:54;;;;;;;9.45;2.47;;;;;;;9.41;100.00;99247.06;3573194;40;20146;-61
2021/05/04 06:18:20;;;;;;;10.55;2.28;;;;;;;9.42;100.00;99238.00;3571202;40;20494;-61
2021/05/04 06:20:46;;;;;;;6.50;2.25;;;;;;;9.40;100.00;99234.66;3572538;40;20061;-62
2021/05/04 06:23:13;;;;;;;14.15;2.97;;;;;;;9.36;100.00;99238.66;3571898;40;20100;-62
2021/05/04 06:25:40;;;;;;;14.45;3.00;;;;;;;9.22;100.00;99232.13;3572530;40;20141;-64
2021/05/04 06:28:09;;;;;;;9.30;2.35;;;;;;;9.23;100.00;99239.16;3569652;40;20056;-61
2021/05/04 06:30:36;;;;;;;8.35;2.63;;;;;;;9.38;100.00;99229.44;3572797;40;20033;-61
2021/05/04 06:33:04;;;;;;;8.98;2.33;;;;;;;9.29;100.00;99236.66;3571244;40;20085;-62
2021/05/04 06:35:30;;;;;;;12.43;2.20;;;;;;;9.22;100.00;99234.81;3572174;40;20081;-64
2021/05/04 06:37:56;;;;;;;7.38;2.35;;;;;;;9.36;100.00;99244.88;3572838;40;20033;-61
2021/05/04 06:40:22;;;;;;;7.18;2.00;;;;;;;9.47;100.00;99244.53;3571375;40;20076;-63
2021/05/04 06:42:49;;;;;;;7.63;2.20;;;;;;;9.53;100.00;99234.16;3572133;40;20416;-61
2021/05/04 06:45:15;;;;;;;9.27;2.13;;;;;;;9.49;100.00;99227.44;3571593;40;20047;-63
2021/05/04 06:47:41;;;;;;;9.98;2.50;;;;;;;9.44;100.00;99231.44;3572691;40;20065;-63
2021/05/04 06:50:08;;;;;;;7.05;2.67;;;;;;;9.52;100.00;99240.50;3571401;40;20076;-64
2021/05/04 06:52:34;;;;;;;10.13;3.22;;;;;;;9.50;100.00;99232.63;3570436;40;20132;-65
2021/05/04 06:55:00;;;;;;;10.70;3.15;;;;;;;9.69;100.00;99233.25;3571454;40;20051;-62
2021/05/04 06:57:26;;;;;;;16.58;3.50;;;;;;;9.70;100.00;99245.69;3571601;40;20057;-61
2021/05/04 06:59:53;;;;;;;13.55;3.40;;;;;;;9.59;100.00;99244.22;3567482;40;20175;-63
2021/05/04 07:02:19;;;;;;;12.70;2.85;;;;;;;9.62;100.00;99235.81;3571206;40;20139;-64
2021/05/04 07:04:45;;;;;;;11.60;3.92;;;;;;;9.53;100.00;99236.84;3572259;40;20430;-63
2021/05/04 07:07:11;;;;;;;14.73;3.78;;;;;;;9.46;100.00;99229.44;3568990;40;20052;-64
2021/05/04 07:09:37;;;;;;;14.02;3.92;;;;;;;9.53;100.00;99234.16;3572038;40;20048;-64
2021/05/04 07:12:04;;;;;;;17.30;3.45;;;;;;;9.51;100.00;99225.41;3571383;40;20049;-62
2021/05/04 07:14:31;;;;;;;19.02;3.60;;;;;;;9.45;100.00;99232.28;3570475;40;20061;-61
2021/05/04 07:17:00;;;;;;;17.48;4.05;;;;;;;9.43;100.00;99229.75;3571880;40;20318;-61
2021/05/04 07:19:26;;;;;;;18.52;4.18;;;;;;;9.28;100.00;99234.16;3569628;40;20131;-62
2021/05/04 07:21:52;;;;;;;15.07;4.20;;;;;;;9.24;100.00;99239.00;3571657;40;20064;-61
2021/05/04 07:24:18;;;;;;;15.10;4.63;;;;;;;9.04;100.00;99245.69;3571581;40;20045;-62
2021/05/04 07:26:44;;;;;;;18.42;4.47;;;;;;;8.92;100.00;99258.59;3571335;40;20511;-62
2021/05/04 07:29:10;;;;;;;17.15;4.47;;;;;;;8.80;100.00;99259.91;3568420;40;20056;-62
2021/05/04 07:31:38;;;;;;;19.95;5.10;;;;;;;8.68;100.00;99252.16;3571636;40;20045;-62
2021/05/04 07:34:05;;;;;;;12.60;3.70;;;;;;;8.63;100.00;99249.16;3572215;40;20049;-62
2021/05/04 07:36:31;;;;;;;14.55;4.00;;;;;;;8.68;100.00;99245.97;3569195;40;20041;-62
2021/05/04 07:38:58;;;;;;;20.77;4.40;;;;;;;8.69;100.00;99245.81;3571563;40;20086;-62
2021/05/04 07:44:15;;;;;;;25.35;5.82;;;;;;;9.06;100.00;99236.47;3596393;22;20073;-64
2021/05/04 07:46:41;;;;;;;20.63;5.70;;;;;;;9.21;100.00;99231.28;3571260;40;20049;-64
2021/05/04 07:49:12;;;;;;;21.05;5.38;;;;;;;9.64;100.00;99231.09;3571866;40;20418;-61
2021/05/04 07:51:38;;;;;;;21.67;5.13;;;;;;;9.98;100.00;99224.63;3571600;40;20388;-62
2021/05/04 07:54:05;;;;;;;20.40;5.43;;;;;;;10.08;100.00;99227.97;3573276;40;20297;-64
2021/05/04 07:56:31;;;;;;;19.77;4.78;;;;;;;9.88;100.00;99205.19;3573776;40;20046;-64
2021/05/04 07:58:57;;;;;;;20.33;3.75;;;;;;;9.61;100.00;99200.06;3573416;40;21817;-64
2021/05/04 08:01:23;;;;;;;17.48;4.65;;;;;;;9.45;100.00;99217.03;3572232;40;20057;-62
2021/05/04 08:03:49;;;;;;;18.92;4.78;;;;;;;9.22;100.00;99222.22;3573078;40;20099;-65
2021/05/04 08:06:16;;;;;;;18.15;4.32;;;;;;;9.32;100.00;99222.06;3572798;40;20324;-64
2021/05/04 08:08:42;;;;;;;17.92;4.68;;;;;;;9.09;100.00;99244.19;3573256;40;20389;-62
2021/05/04 08:11:08;;;;;;;18.90;4.55;;;;;;;8.88;100.00;99242.00;3572117;40;20059;-63
2021/05/04 08:13:35;;;;;;;14.80;4.25;;;;;;;8.69;100.00;99242.31;3572960;40;20045;-62
2021/05/04 08:16:05;;;;;;;25.17;5.60;;;;;;;8.75;100.00;99255.03;3574044;40;20082;-62
2021/05/04 08:18:32;;;;;;;;;;;;;;;8.92;100.00;99253.22;3573648;40;20033;-66
2021/05/04 08:20:58;;;;;;;18.73;3.90;;;;;;;9.15;100.00;99252.59;3573289;40;20262;-61
2021/05/04 08:23:25;;;;;;;15.55;4.72;;;;;;;9.55;100.00;99249.06;3572220;40;20093;-64
2021/05/04 08:25:52;;;;;;;16.85;3.97;;;;;;;9.75;100.00;99249.53;3573281;40;20088;-62
2021/05/04 08:28:18;;;;;;;21.58;4.90;;;;;;;9.90;100.00;99235.41;3572775;40;20488;-61
2021/05/04 08:30:44;;;;;;;20.27;4.85;;;;;;;9.90;100.00;99246.16;3573728;40;20055;-61
2021/05/04 08:33:10;;;;;;;20.73;4.15;;;;;;;9.75;100.00;99236.13;3570003;40;20127;-62
2021/05/04 08:35:36;;;;;;;20.55;4.68;;;;;;;9.79;100.00;99233.91;3572968;40;20122;-63
2021/05/04 08:38:03;;;;;;;20.42;4.00;;;;;;;9.88;100.00;99230.22;3572885;40;20052;-60
2021/05/04 08:40:30;;;;;;;18.30;4.38;;;;;;;9.97;100.00;99225.66;3572317;40;20055;-61
2021/05/04 08:42:56;;;;;;;16.10;4.57;;;;;;;10.05;100.00;99225.63;3573583;40;20108;-62
2021/05/04 08:45:23;;;;;;;21.02;5.10;;;;;;;10.08;100.00;99233.34;3572891;40;20369;-63
2021/05/04 08:47:50;;;;;;;21.23;4.75;;;;;;;10.04;100.00;99229.34;3572747;40;20041;-62
2021/05/04 08:50:19;;;;;;;20.63;4.55;;;;;;;9.95;100.00;99233.91;3572011;40;20407;-66
2021/05/04 08:52:46;;;;;;;17.42;4.28;;;;;;;9.77;100.00;99228.72;3573067;40;20400;-62
2021/05/04 08:55:13;;;;;;;14.88;4.95;;;;;;;9.70;100.00;99249.25;3572802;40;20126;-61
2021/05/04 08:57:40;;;;;;;23.65;5.57;;;;;;;9.62;100.00;99233.94;3571211;40;20089;-63
2021/05/04 09:00:09;;;;;;;21.15;5.63;;;;;;;9.61;100.00;99234.13;3572015;40;20126;-61
2021/05/04 09:02:36;;;;;;;15.18;4.60;;;;;;;9.69;100.00;99239.50;3572662;40;20433;-63
2021/05/04 09:05:14;;;;;;;18.05;5.13;;;;;;;9.63;100.00;99226.75;3571205;40;20037;-63
2021/05/04 09:07:40;;;;;;;16.30;5.13;;;;;;;9.62;100.00;99243.88;3570455;40;21461;-63
2021/05/04 09:10:16;;;;;;;19.90;4.15;;;;;;;9.40;100.00;99248.06;3571588;40;20064;-63
2021/05/04 09:12:47;;;;;;;17.30;3.92;;;;;;;9.31;100.00;99246.41;3571383;40;20045;-66
2021/05/04 09:18:40;;;;;;;18.83;3.70;;;;;;;9.16;100.00;99239.00;3571866;40;20060;-64
2021/05/04 09:21:08;;;;;;;15.98;3.78;;;;;;;9.46;100.00;99228.59;3571382;40;20328;-62
2021/05/04 09:23:35;;;;;;;12.47;3.50;;;;;;;9.46;100.00;99229.44;3571289;40;20049;-63
2021/05/04 09:26:01;;;;;;;14.75;3.38;;;;;;;9.67;100.00;99222.69;3572333;40;20327;-64
2021/05/04 09:28:28;;;;;;;12.23;2.55;;;;;;;9.59;100.00;99220.84;3572937;40;20146;-64
2021/05/04 09:30:55;;;;;;;13.15;2.92;;;;;;;9.37;100.00;99210.81;3570160;40;20067;-62
2021/05/04 09:33:22;;;;;;;11.77;2.58;;;;;;;9.53;100.00;99212.66;3572209;40;20073;-63
2021/05/04 09:35:49;;;;;;;11.73;3.03;;;;;;;9.42;100.00;99225.44;3571919;40;20060;-62
2021/05/04 09:38:16;;;;;;;10.70;2.38;;;;;;;9.31;100.00;99225.75;3570110;40;20045;-65
2021/05/04 09:40:43;;;;;;;18.25;3.20;;;;;;;9.01;100.00;99222.72;3572598;40;20378;-63
2021/05/04 09:43:12;;;;;;;12.93;3.92;;;;;;;8.66;100.00;99215.81;3572345;40;20162;-65
2021/05/04 09:45:42;;;;;;;13.25;3.45;;;;;;;8.62;100.00;99217.97;3572361;40;20448;-64
2021/05/04 09:48:16;;;;;;;15.90;3.33;;;;;;;8.64;100.00;99224.00;3571731;40;20068;-64
2021/05/04 09:50:51;;;;;;;13.48;3.28;;;;;;;8.71;100.00;99227.69;3572562;40;20590;-64
2021/05/04 09:53:22;;;;;;;16.50;3.08;;;;;;;8.73;100.00;99230.22;3572577;40;20061;-63
2021/05/04 09:55:51;;;;;;;18.38;4.30;;;;;;;8.71;100.00;99300.13;3572634;40;20305;-67
2021/05/04 09:58:17;;;;;;;8.65;2.28;;;;;;;7.89;100.00;99295.19;3571802;40;20057;-65
2021/05/04 10:00:44;;;;;;;4.90;1.50;;;;;;;7.69;100.00;99288.34;3569858;40;20045;-62
2021/05/04 10:03:11;;;;;;;6.00;1.80;;;;;;;7.75;100.00;99301.09;3571304;40;21501;-64
2021/05/04 10:05:37;;;;;;;7.22;1.88;;;;;;;7.64;100.00;99307.56;3572785;40;20051;-64
2021/05/04 10:08:05;;;;;;;8.52;1.75;;;;;;;7.70;100.00;99306.94;3572544;40;20069;-64
2021/05/04 10:10:31;;;;;;;6.18;1.30;;;;;;;7.87;100.00;99309.72;3572653;40;20041;-63
2021/05/04 10:13:00;;;;;;;6.22;2.05;;;;;;;8.12;100.00;99315.25;3572694;40;20045;-63
2021/05/04 10:15:26;;;;;;;6.65;1.90;;;;;;;8.35;100.00;99302.97;3571481;40;20045;-62
2021/05/04 10:17:53;;;;;;;4.95;1.52;;;;;;;8.40;100.00;99323.94;3572261;40;20047;-61
2021/05/04 10:20:20;;;;;;;11.23;2.70;;;;;;;8.76;100.00;99319.25;3572592;40;20473;-62
2021/05/04 10:22:46;;;;;;;6.03;1.92;;;;;;;8.89;100.00;99312.59;3572278;40;20364;-64
2021/05/04 10:25:15;;;;;;;6.82;1.92;;;;;;;8.98;100.00;99317.00;3571303;40;20064;-61
2021/05/04 10:27:42;;;;;;;5.93;2.45;;;;;;;8.98;100.00;99337.59;3572738;40;20043;-60
2021/05/04 10:30:10;;;;;;;8.23;2.47;;;;;;;8.99;100.00;99318.66;3572081;40;20053;-62
2021/05/04 10:32:54;;;;;;;5.78;2.00;;;;;;;9.16;100.00;99334.78;3572182;40;20084;-60
2021/05/04 10:35:34;;;;;;;3.10;1.80;;;;;;;9.12;100.00;99328.91;3570773;40;20053;-61
2021/05/04 10:38:02;;;;;;;7.30;2.55;;;;;;;8.99;100.00;99344.66;3571924;40;20049;-59
2021/05/04 10:40:30;;;;;;;15.90;3.05;;;;;;;8.96;100.00;99353.88;3572054;40;20049;-63
2021/05/04 10:42:57;;;;;;;5.97;2.15;;;;;;;8.69;100.00;99339.69;3572239;40;20139;-64
2021/05/04 10:45:38;;;;;;;8.18;2.05;;;;;;;8.96;100.00;99355.72;3571824;40;20069;-62
2021/05/04 10:48:06;;;;;;;5.82;1.80;;;;;;;8.99;100.00;99356.22;3571635;40;20045;-62
2021/05/04 10:50:51;;;;;;;10.02;2.20;;;;;;;8.94;100.00;99358.56;3572460;40;20312;-65
2021/05/04 10:53:20;;;;;;;6.03;1.95;;;;;;;8.63;100.00;99361.78;3571510;40;20056;-61
2021/05/04 10:56:07;;;;;;;9.13;2.30;;;;;;;8.56;100.00;99380.34;3572581;40;20056;-61
2021/05/04 10:58:47;;;;;;;8.75;1.60;;;;;;;8.22;100.00;99383.81;3571889;40;20324;-61
2021/05/04 11:01:17;;;;;;;9.23;1.98;;;;;;;8.46;100.00;99384.16;3570212;40;20042;-61
2021/05/04 11:03:57;;;;;;;7.63;1.70;;;;;;;8.54;100.00;99389.59;3569636;40;20056;-60
2021/05/04 11:06:41;;;;;;;;;;;;;;;8.53;100.00;99401.28;3630634;23;20033;-64
2021/05/04 11:09:10;;;;;;;8.32;1.83;;;;;;;8.52;100.00;99399.59;3568545;40;20288;-62
2021/05/04 11:11:42;;;;;;;8.43;1.90;;;;;;;8.68;100.00;99401.53;3572113;40;20048;-60
2021/05/04 11:14:25;;;;;;;9.43;2.10;;;;;;;8.71;100.00;99390.50;3572180;40;20077;-61
2021/05/04 11:17:13;;;;;;;5.13;1.33;;;;;;;8.77;100.00;99406.78;3571023;40;20322;-62
2021/05/04 11:19:42;;;;;;;5.53;1.45;;;;;;;8.71;100.00;99402.03;3571779;40;20124;-60
2021/05/04 11:22:11;;;;;;;5.10;1.40;;;;;;;8.68;100.00;99404.22;3569827;40;20045;-61
2021/05/04 11:24:39;;;;;;;6.53;1.73;;;;;;;8.69;100.00;99396.00;3570984;40;20414;-61
2021/05/04 11:27:20;;;;;;;11.25;1.90;;;;;;;8.67;100.00;99413.25;3570082;40;20045;-63
2021/05/04 11:29:48;;;;;;;7.05;2.03;;;;;;;8.77;100.00;99388.03;3569362;40;20059;-61
2021/05/04 11:32:16;;;;;;;7.97;1.63;;;;;;;8.75;100.00;99402.59;3568898;40;20053;-62
2021/05/04 11:34:45;;;;;;;8.52;1.70;;;;;;;8.83;100.00;99393.72;3571702;40;20100;-62
2021/05/04 11:37:13;;;;;;;6.53;1.42;;;;;;;8.87;100.00;99411.19;3571017;40;20076;-63
2021/05/04 11:39:50;;;;;;;6.18;1.52;;;;;;;8.82;100.00;99397.41;3570714;40;20045;-62
2021/05/04 11:42:16;;;;;;;7.18;1.77;;;;;;;8.92;100.00;99408.84;3570076;40;20409;-61
2021/05/04 11:44:42;;;;;;;6.43;1.50;;;;;;;9.07;100.00;99396.50;3571357;40;20398;-61